createdAt,value
2022-12-27T00:00:45.683Z,7.51
2022-12-27T00:03:13.751Z,7.48
2022-12-27T00:05:44.086Z,7.47
2022-12-27T00:08:11.849Z,7.34
2022-12-27T00:10:40.023Z,7.39
2022-12-27T00:13:07.785Z,7.28
2022-12-27T00:15:37.470Z,7.16
2022-12-27T00:18:05.506Z,7.18
2022-12-27T00:20:33.311Z,7.18
2022-12-27T00:23:02.087Z,7.19
2022-12-27T00:25:29.867Z,7.15
2022-12-27T00:27:57.688Z,7.12
2022-12-27T00:30:25.419Z,7.07
2022-12-27T00:32:54.491Z,7.08
2022-12-27T00:35:22.234Z,7.06
2022-12-27T00:37:49.992Z,7.06
2022-12-27T00:40:17.898Z,7.13
2022-12-27T00:42:45.798Z,7.11
2022-12-27T00:45:13.506Z,7.11
2022-12-27T00:47:41.283Z,7.14
2022-12-27T00:50:10.943Z,6.48
2022-12-27T00:52:38.641Z,7.15
2022-12-27T00:55:07.083Z,7.19
2022-12-27T00:57:34.865Z,7.12
2022-12-27T01:00:09.606Z,7.10
2022-12-27T01:02:38.034Z,7.01
2022-12-27T01:05:06.536Z,7.04
2022-12-27T01:07:37.148Z,6.97
2022-12-27T01:10:05.739Z,7.08
2022-12-27T01:12:33.449Z,7.10
2022-12-27T01:15:01.255Z,6.98
2022-12-27T01:17:30.622Z,7.06
2022-12-27T01:19:58.411Z,7.06
2022-12-27T01:22:26.388Z,7.04
2022-12-27T01:24:55.827Z,7.02
2022-12-27T01:27:23.642Z,7.08
2022-12-27T01:29:51.790Z,7.12
2022-12-27T01:32:19.550Z,7.02
2022-12-27T01:34:47.368Z,7.02
2022-12-27T01:37:15.075Z,6.97
2022-12-27T01:39:42.881Z,6.99
2022-12-27T01:42:34.614Z,6.96
2022-12-27T01:45:04.022Z,6.97
2022-12-27T01:47:45.089Z,6.92
2022-12-27T01:50:19.259Z,7.01
2022-12-27T01:52:53.244Z,6.90
2022-12-27T01:55:26.289Z,6.91
2022-12-27T01:57:58.042Z,6.88
2022-12-27T02:00:25.907Z,6.87
2022-12-27T02:02:54.345Z,6.88
2022-12-27T02:05:25.278Z,6.88
2022-12-27T02:08:06.176Z,6.82
2022-12-27T02:10:34.729Z,6.81
2022-12-27T02:13:05.699Z,6.74
2022-12-27T02:15:33.989Z,6.72
2022-12-27T02:18:02.017Z,6.78
2022-12-27T02:20:42.762Z,6.75
2022-12-27T02:23:58.943Z,6.73
2022-12-27T02:26:42.997Z,6.57
2022-12-27T02:29:23.773Z,6.59
2022-12-27T02:31:59.161Z,6.51
2022-12-27T02:34:30.722Z,6.50
2022-12-27T02:37:04.085Z,6.62
2022-12-27T02:39:36.078Z,6.53
2022-12-27T02:42:23.563Z,6.48
2022-12-27T02:45:12.457Z,6.51
2022-12-27T02:47:58.087Z,6.43
2022-12-27T02:50:51.182Z,6.39
2022-12-27T02:53:31.511Z,6.44
2022-12-27T02:56:31.939Z,6.40
2022-12-27T02:59:16.269Z,6.40
2022-12-27T03:02:10.015Z,6.34
2022-12-27T03:05:05.019Z,6.37
2022-12-27T03:07:39.066Z,6.37
2022-12-27T03:10:32.925Z,6.35
2022-12-27T03:13:31.899Z,6.34
2022-12-27T03:16:09.376Z,6.32
2022-12-27T03:19:06.729Z,6.26
2022-12-27T03:21:54.758Z,6.47
2022-12-27T03:24:45.211Z,6.39
2022-12-27T03:27:18.401Z,6.33
2022-12-27T03:30:10.998Z,6.33
2022-12-27T03:33:01.365Z,6.27
2022-12-27T03:35:35.923Z,6.19
2022-12-27T03:38:05.578Z,6.29
2022-12-27T03:41:08.097Z,6.05
2022-12-27T03:43:37.869Z,5.92
2022-12-27T03:46:35.653Z,5.67
2022-12-27T03:49:12.650Z,5.41
2022-12-27T03:51:47.395Z,5.37
2022-12-27T03:54:19.807Z,5.31
2022-12-27T03:56:47.564Z,5.24
2022-12-27T03:59:15.492Z,5.19
2022-12-27T04:01:43.383Z,5.04
2022-12-27T04:04:11.170Z,5.00
2022-12-27T04:06:39.014Z,4.94
2022-12-27T04:09:25.555Z,4.93
2022-12-27T04:12:10.923Z,4.82
2022-12-27T04:14:56.410Z,4.80
2022-12-27T04:17:41.703Z,4.75
2022-12-27T04:20:27.575Z,4.73
2022-12-27T04:23:12.854Z,4.88
2022-12-27T04:25:59.565Z,4.81
2022-12-27T04:28:44.909Z,4.83
2022-12-27T04:31:30.311Z,4.97
2022-12-27T04:34:16.199Z,5.03
2022-12-27T04:36:44.040Z,4.97
2022-12-27T04:39:11.732Z,5.20
2022-12-27T04:41:59.202Z,5.24
2022-12-27T04:44:45.104Z,5.29
2022-12-27T04:47:32.041Z,5.26
2022-12-27T04:50:17.393Z,5.22
2022-12-27T04:53:02.756Z,5.27
2022-12-27T04:55:31.833Z,5.16
2022-12-27T04:58:01.093Z,5.16
2022-12-27T05:00:49.520Z,5.18
2022-12-27T05:03:20.876Z,5.08
2022-12-27T05:05:51.796Z,5.20
2022-12-27T05:08:38.674Z,5.31
2022-12-27T05:11:23.878Z,5.38
2022-12-27T05:14:01.974Z,5.43
2022-12-27T05:16:31.394Z,5.37
2022-12-27T05:18:59.405Z,5.39
2022-12-27T05:21:27.286Z,5.57
2022-12-27T05:24:12.266Z,5.53
2022-12-27T05:26:41.901Z,5.43
2022-12-27T05:29:11.168Z,5.50
2022-12-27T05:31:39.010Z,5.65
2022-12-27T05:34:07.185Z,5.60
2022-12-27T05:36:34.978Z,5.51
2022-12-27T05:39:02.844Z,5.57
2022-12-27T05:41:30.608Z,5.58
2022-12-27T05:44:04.822Z,5.62
2022-12-27T05:46:36.146Z,5.74
2022-12-27T05:49:04.734Z,5.78
2022-12-27T05:51:32.504Z,5.78
2022-12-27T05:54:00.316Z,5.83
2022-12-27T05:56:28.094Z,5.79
2022-12-27T05:58:55.860Z,5.72
2022-12-27T06:01:23.887Z,5.76
2022-12-27T06:03:53.072Z,5.78
2022-12-27T06:06:21.188Z,5.77
2022-12-27T06:08:48.943Z,5.73
2022-12-27T06:11:18.893Z,5.92
2022-12-27T06:13:51.209Z,5.78
2022-12-27T06:16:20.435Z,5.84
2022-12-27T06:18:48.352Z,5.78
2022-12-27T06:21:20.580Z,5.80
2022-12-27T06:23:49.498Z,5.68
2022-12-27T06:26:19.797Z,5.69
2022-12-27T06:28:49.744Z,5.77
2022-12-27T06:31:19.051Z,5.67
2022-12-27T06:33:47.980Z,5.73
2022-12-27T06:36:19.871Z,5.86
2022-12-27T06:38:48.006Z,5.72
2022-12-27T06:41:18.506Z,5.88
2022-12-27T06:43:47.415Z,5.95
2022-12-27T06:46:18.778Z,5.89
2022-12-27T06:48:47.712Z,5.90
2022-12-27T06:51:18.442Z,5.83
2022-12-27T06:53:46.223Z,5.87
2022-12-27T06:56:17.013Z,5.79
2022-12-27T06:58:45.261Z,5.76
2022-12-27T07:01:16.112Z,5.76
2022-12-27T07:03:44.515Z,5.78
2022-12-27T07:06:12.928Z,5.72
2022-12-27T07:08:42.519Z,5.66
2022-12-27T07:11:12.195Z,5.89
2022-12-27T07:13:41.709Z,5.76
2022-12-27T07:16:11.752Z,5.87
2022-12-27T07:18:39.944Z,5.86
2022-12-27T07:21:09.649Z,5.84
2022-12-27T07:23:38.751Z,5.78
2022-12-27T07:26:10.136Z,5.84
2022-12-27T07:28:38.443Z,5.85
2022-12-27T07:31:09.141Z,5.97
2022-12-27T07:33:38.393Z,6.08
2022-12-27T07:36:09.988Z,6.19
2022-12-27T07:38:37.818Z,6.26
2022-12-27T07:41:09.033Z,6.17
2022-12-27T07:43:37.542Z,6.36
2022-12-27T07:46:06.622Z,6.31
2022-12-27T07:48:34.583Z,6.19
2022-12-27T07:51:03.027Z,6.18
2022-12-27T07:53:31.669Z,6.33
2022-12-27T07:55:59.931Z,6.29
2022-12-27T07:58:29.055Z,6.43
2022-12-27T08:00:57.495Z,6.45
2022-12-27T08:03:25.313Z,6.46
2022-12-27T08:05:53.502Z,6.46
2022-12-27T08:08:24.201Z,6.32
2022-12-27T08:10:51.960Z,6.67
2022-12-27T08:13:19.759Z,6.77
2022-12-27T08:15:56.525Z,6.79
2022-12-27T08:18:24.594Z,6.60
2022-12-27T08:20:52.501Z,7.09
2022-12-27T08:23:20.239Z,7.14
2022-12-27T08:25:49.014Z,6.91
2022-12-27T08:28:19.085Z,6.81
2022-12-27T08:30:48.970Z,7.12
2022-12-27T08:33:16.919Z,6.95
2022-12-27T08:35:54.779Z,6.90
2022-12-27T08:38:23.189Z,6.72
2022-12-27T08:40:50.995Z,6.76
2022-12-27T08:43:18.888Z,6.79
2022-12-27T08:45:48.199Z,6.76
2022-12-27T08:48:16.492Z,6.83
2022-12-27T08:50:44.341Z,6.95
2022-12-27T08:53:12.328Z,7.04
2022-12-27T08:55:40.133Z,7.05
2022-12-27T08:58:15.773Z,7.22
2022-12-27T09:00:44.326Z,7.44
2022-12-27T09:03:13.498Z,7.27
2022-12-27T09:05:42.279Z,7.36
2022-12-27T09:08:10.569Z,7.22
2022-12-27T09:10:39.299Z,7.07
2022-12-27T09:13:07.483Z,7.23
2022-12-27T09:15:35.293Z,7.28
2022-12-27T09:18:04.037Z,7.47
2022-12-27T09:20:33.165Z,7.28
2022-12-27T09:23:01.090Z,7.16
2022-12-27T09:25:28.868Z,7.33
2022-12-27T09:27:56.749Z,7.31
2022-12-27T09:30:24.529Z,7.34
2022-12-27T09:32:52.257Z,7.19
2022-12-27T09:35:20.059Z,7.01
2022-12-27T09:37:49.234Z,6.84
2022-12-27T09:40:20.639Z,6.90
2022-12-27T09:43:12.603Z,6.98
2022-12-27T09:45:48.155Z,6.83
2022-12-27T09:48:21.838Z,6.54
2022-12-27T09:50:55.832Z,6.74
2022-12-27T09:53:34.746Z,6.78
2022-12-27T09:56:02.591Z,6.73
2022-12-27T09:58:42.145Z,6.58
2022-12-27T10:01:20.149Z,6.68
2022-12-27T10:03:49.203Z,6.95
2022-12-27T10:06:31.454Z,7.03
2022-12-27T10:09:03.105Z,7.04
2022-12-27T10:11:42.492Z,6.93
2022-12-27T10:14:28.346Z,6.75
2022-12-27T10:17:03.851Z,7.15
2022-12-27T10:19:43.192Z,7.17
2022-12-27T10:22:24.004Z,7.47
2022-12-27T10:24:56.876Z,7.24
2022-12-27T10:27:26.492Z,7.13
2022-12-27T10:29:55.695Z,7.09
2022-12-27T10:32:23.919Z,7.22
2022-12-27T10:34:56.682Z,7.12
2022-12-27T10:37:24.956Z,7.15
2022-12-27T10:39:54.100Z,7.17
2022-12-27T10:42:35.398Z,7.29
2022-12-27T10:45:28.162Z,7.40
2022-12-27T10:47:58.115Z,7.42
2022-12-27T10:50:29.594Z,7.68
2022-12-27T10:52:57.932Z,7.86
2022-12-27T10:55:36.079Z,7.96
2022-12-27T10:58:22.609Z,7.99
2022-12-27T11:00:58.012Z,8.04
2022-12-27T11:03:28.373Z,7.65
2022-12-27T11:06:02.693Z,7.80
2022-12-27T11:08:31.519Z,7.61
2022-12-27T11:11:15.881Z,7.78
2022-12-27T11:13:43.979Z,7.79
2022-12-27T11:16:19.242Z,8.04
2022-12-27T11:18:51.107Z,8.51
2022-12-27T11:21:27.303Z,8.64
2022-12-27T11:23:59.140Z,8.95
2022-12-27T11:26:30.961Z,8.79
2022-12-27T11:29:01.721Z,8.52
2022-12-27T11:31:34.148Z,8.29
2022-12-27T11:34:05.840Z,8.26
2022-12-27T11:36:37.288Z,8.45
2022-12-27T11:39:07.944Z,8.37
2022-12-27T11:41:46.687Z,8.36
2022-12-27T11:44:21.966Z,8.35
2022-12-27T11:46:59.054Z,8.68
2022-12-27T11:49:33.777Z,8.82
2022-12-27T11:52:28.214Z,8.89
2022-12-27T11:55:17.898Z,8.85
2022-12-27T11:58:24.975Z,8.58
2022-12-27T12:01:05.281Z,8.68
2022-12-27T12:04:00.889Z,8.80
2022-12-27T12:06:45.584Z,8.64
2022-12-27T12:09:31.559Z,8.39
2022-12-27T12:12:18.373Z,8.65
2022-12-27T12:15:13.824Z,8.38
2022-12-27T12:17:52.647Z,8.36
2022-12-27T12:20:45.642Z,8.73
2022-12-27T12:23:28.730Z,8.67
2022-12-27T12:26:14.176Z,8.92
2022-12-27T12:29:14.178Z,8.88
2022-12-27T12:32:10.962Z,9.00
2022-12-27T12:34:59.979Z,8.78
2022-12-27T12:37:48.292Z,8.75
2022-12-27T12:40:33.556Z,8.41
2022-12-27T12:43:14.924Z,8.52
2022-12-27T12:45:58.114Z,8.76
2022-12-27T12:48:57.524Z,8.58
2022-12-27T12:51:43.661Z,8.30
2022-12-27T12:54:29.482Z,8.39
2022-12-27T12:57:16.339Z,8.68
2022-12-27T13:00:08.771Z,8.52
2022-12-27T13:02:50.737Z,8.62
2022-12-27T13:05:30.336Z,8.60
2022-12-27T13:08:07.277Z,8.50
2022-12-27T13:10:52.855Z,8.27
2022-12-27T13:13:27.284Z,8.63
2022-12-27T13:16:06.150Z,8.40
2022-12-27T13:18:44.473Z,8.51
2022-12-27T13:21:24.337Z,8.46
2022-12-27T13:24:03.240Z,8.43
2022-12-27T13:26:39.799Z,8.44
2022-12-27T13:29:40.320Z,8.39
2022-12-27T13:32:20.004Z,8.34
2022-12-27T13:35:00.361Z,8.27
2022-12-27T13:37:41.263Z,8.21
2022-12-27T13:40:29.545Z,8.30
2022-12-27T13:43:14.567Z,8.42
2022-12-27T13:46:00.591Z,8.38
2022-12-27T13:48:45.193Z,8.48
2022-12-27T13:51:35.377Z,8.33
2022-12-27T13:54:41.971Z,8.30
2022-12-27T13:57:24.800Z,8.28
2022-12-27T14:00:05.389Z,8.14
2022-12-27T14:02:58.587Z,8.03
2022-12-27T14:05:57.147Z,8.04
2022-12-27T14:08:38.920Z,8.00
2022-12-27T14:11:23.722Z,8.01
2022-12-27T14:13:52.444Z,7.93
2022-12-27T14:16:37.091Z,7.91
2022-12-27T14:19:27.674Z,7.74
2022-12-27T14:22:06.580Z,7.81
2022-12-27T14:25:05.135Z,7.82
2022-12-27T14:28:11.995Z,7.79
2022-12-27T14:31:07.552Z,7.66
2022-12-27T14:34:04.998Z,7.69
2022-12-27T14:37:07.793Z,7.56
2022-12-27T14:39:57.614Z,7.44
2022-12-27T14:43:12.636Z,7.54
2022-12-27T14:46:12.450Z,7.49
2022-12-27T14:49:17.696Z,7.65
2022-12-27T14:52:13.967Z,7.50
2022-12-27T14:55:12.596Z,7.49
2022-12-27T14:57:49.351Z,7.59
2022-12-27T15:00:20.764Z,7.58
2022-12-27T15:03:05.787Z,7.52
2022-12-27T15:05:44.438Z,7.32
2022-12-27T15:08:27.830Z,7.53
2022-12-27T15:11:15.488Z,7.37
2022-12-27T15:13:59.069Z,7.44
2022-12-27T15:16:40.409Z,7.33
2022-12-27T15:19:26.074Z,7.25
2022-12-27T15:22:03.075Z,7.12
2022-12-27T15:24:43.530Z,7.15
2022-12-27T15:27:21.252Z,7.17
2022-12-27T15:30:12.246Z,7.31
2022-12-27T15:32:53.257Z,7.05
2022-12-27T15:35:45.623Z,7.07
2022-12-27T15:38:16.673Z,7.05
2022-12-27T15:41:11.033Z,6.90
2022-12-27T15:44:06.265Z,6.91
2022-12-27T15:47:07.882Z,6.89
2022-12-27T15:49:51.028Z,6.72
2022-12-27T15:52:29.965Z,6.60
2022-12-27T15:55:16.900Z,6.56
2022-12-27T15:58:09.675Z,6.38
2022-12-27T16:00:38.433Z,6.32
2022-12-27T16:03:32.873Z,6.25
2022-12-27T16:06:02.980Z,6.36
2022-12-27T16:08:35.899Z,6.39
2022-12-27T16:11:06.401Z,6.32
2022-12-27T16:13:42.708Z,6.36
2022-12-27T16:16:33.508Z,6.55
2022-12-27T16:19:32.204Z,6.47
2022-12-27T16:22:04.716Z,6.48
2022-12-27T16:24:32.541Z,6.56
2022-12-27T16:27:05.122Z,6.56
2022-12-27T16:29:36.163Z,6.60
2022-12-27T16:32:20.547Z,6.45
2022-12-27T16:34:51.930Z,6.33
2022-12-27T16:37:28.979Z,6.41
2022-12-27T16:40:28.615Z,6.35
2022-12-27T16:43:33.087Z,6.35
2022-12-27T16:46:14.454Z,6.31
2022-12-27T16:48:58.365Z,6.31
2022-12-27T16:51:38.467Z,6.27
2022-12-27T16:54:24.227Z,6.20
2022-12-27T16:56:51.991Z,6.23
2022-12-27T16:59:57.200Z,6.19
2022-12-27T17:02:32.347Z,6.28
2022-12-27T17:05:01.148Z,6.29
2022-12-27T17:08:23.132Z,6.22
2022-12-27T17:11:02.090Z,6.05
2022-12-27T17:13:43.227Z,6.06
2022-12-27T17:16:20.270Z,6.03
2022-12-27T17:18:51.722Z,6.05
2022-12-27T17:21:29.902Z,6.00
2022-12-27T17:24:00.939Z,5.98
2022-12-27T17:26:54.049Z,6.00
2022-12-27T17:29:41.297Z,5.96
2022-12-27T17:32:23.452Z,5.92
2022-12-27T17:35:00.281Z,5.88
2022-12-27T17:37:36.596Z,5.94
2022-12-27T17:40:17.782Z,5.85
2022-12-27T17:43:17.402Z,5.83
2022-12-27T17:45:54.143Z,5.78
2022-12-27T17:48:27.876Z,5.75
2022-12-27T17:50:59.224Z,5.68
2022-12-27T17:53:44.410Z,5.66
2022-12-27T17:56:36.161Z,5.58
2022-12-27T17:59:11.885Z,5.48
2022-12-27T18:01:46.918Z,5.34
2022-12-27T18:04:22.834Z,5.18
2022-12-27T18:06:54.522Z,5.20
2022-12-27T18:09:34.158Z,5.21
2022-12-27T18:12:03.230Z,5.17
2022-12-27T18:14:34.948Z,4.98
2022-12-27T18:17:03.052Z,4.88
2022-12-27T18:19:33.345Z,4.84
2022-12-27T18:22:03.444Z,4.81
2022-12-27T18:24:33.447Z,4.80
2022-12-27T18:27:03.464Z,4.84
2022-12-27T18:29:33.083Z,4.77
2022-12-27T18:32:05.126Z,4.59
2022-12-27T18:34:36.226Z,4.53
2022-12-27T18:37:07.286Z,4.41
2022-12-27T18:39:38.135Z,4.27
2022-12-27T18:42:13.274Z,4.20
2022-12-27T18:44:46.714Z,4.22
2022-12-27T18:47:21.455Z,4.32
2022-12-27T18:49:55.626Z,4.30
2022-12-27T18:52:26.945Z,4.21
2022-12-27T18:54:55.364Z,4.31
2022-12-27T18:57:40.983Z,4.28
2022-12-27T19:00:20.133Z,4.22
2022-12-27T19:02:48.261Z,4.23
2022-12-27T19:05:31.144Z,4.10
2022-12-27T19:08:08.894Z,4.03
2022-12-27T19:10:37.027Z,4.06
2022-12-27T19:13:05.155Z,4.00
2022-12-27T19:15:43.132Z,4.01
2022-12-27T19:18:23.076Z,3.92
2022-12-27T19:20:57.420Z,3.93
2022-12-27T19:23:32.563Z,3.92
2022-12-27T19:26:04.597Z,3.90
2022-12-27T19:28:33.238Z,4.02
2022-12-27T19:31:23.487Z,4.05
2022-12-27T19:33:53.757Z,4.14
2022-12-27T19:36:26.073Z,4.18
2022-12-27T19:38:54.873Z,4.16
2022-12-27T19:41:22.637Z,4.17
2022-12-27T19:43:50.448Z,4.17
2022-12-27T19:46:19.120Z,4.13
2022-12-27T19:49:15.920Z,4.10
2022-12-27T19:51:38.961Z,4.15
2022-12-27T19:54:13.806Z,4.11
2022-12-27T19:56:42.221Z,4.03
2022-12-27T19:59:16.453Z,3.93
2022-12-27T20:01:45.545Z,3.75
2022-12-27T20:04:16.195Z,3.83
2022-12-27T20:06:45.327Z,3.71
2022-12-27T20:09:16.410Z,3.77
2022-12-27T20:11:45.076Z,3.72
2022-12-27T20:14:14.647Z,3.68
2022-12-27T20:16:42.856Z,3.63
2022-12-27T20:19:12.324Z,3.57
2022-12-27T20:21:41.722Z,3.64
2022-12-27T20:24:12.163Z,3.47
2022-12-27T20:26:40.870Z,3.37
2022-12-27T20:29:08.746Z,3.35
2022-12-27T20:31:44.147Z,3.23
2022-12-27T20:34:13.102Z,3.26
2022-12-27T20:36:43.145Z,3.23
2022-12-27T20:39:10.891Z,3.17
2022-12-27T20:41:38.671Z,3.05
2022-12-27T20:44:06.957Z,2.90
2022-12-27T20:46:34.883Z,2.97
2022-12-27T20:49:03.306Z,2.91
2022-12-27T20:51:33.396Z,2.87
2022-12-27T20:54:04.087Z,2.81
2022-12-27T20:56:32.199Z,2.77
2022-12-27T20:59:01.472Z,2.78
2022-12-27T21:01:29.524Z,2.80
2022-12-27T21:03:57.999Z,2.85
2022-12-27T21:06:28.896Z,2.82
2022-12-27T21:08:58.156Z,2.87
2022-12-27T21:11:31.744Z,2.86
2022-12-27T21:14:00.725Z,2.88
2022-12-27T21:16:31.333Z,2.84
2022-12-27T21:19:02.814Z,2.84
2022-12-27T21:21:30.928Z,2.79
2022-12-27T21:23:59.499Z,2.81
2022-12-27T21:26:31.098Z,2.94
2022-12-27T21:29:01.238Z,3.00
2022-12-27T21:31:29.814Z,3.02
2022-12-27T21:33:59.564Z,3.01
2022-12-27T21:36:31.866Z,2.99
2022-12-27T21:38:59.991Z,3.28
2022-12-27T21:41:31.143Z,3.39
2022-12-27T21:43:58.890Z,3.15
2022-12-27T21:46:28.477Z,3.04
2022-12-27T21:48:57.518Z,3.07
2022-12-27T21:51:25.830Z,3.18
2022-12-27T21:53:54.019Z,3.20
2022-12-27T21:56:22.036Z,3.05
2022-12-27T21:58:51.712Z,2.92
2022-12-27T22:01:22.026Z,2.98
2022-12-27T22:03:51.570Z,3.09
2022-12-27T22:06:21.569Z,3.13
2022-12-27T22:08:50.840Z,3.09
2022-12-27T22:11:20.177Z,3.05
2022-12-27T22:13:48.730Z,3.05
2022-12-27T22:16:20.099Z,3.01
2022-12-27T22:18:49.133Z,2.97
2022-12-27T22:21:19.043Z,2.96
2022-12-27T22:23:49.133Z,3.03
2022-12-27T22:26:19.538Z,3.06
2022-12-27T22:28:47.897Z,3.12
2022-12-27T22:31:19.189Z,3.09
2022-12-27T22:33:47.673Z,3.13
2022-12-27T22:36:18.120Z,3.10
2022-12-27T22:38:49.751Z,3.06
2022-12-27T22:41:20.016Z,3.07
2022-12-27T22:43:51.451Z,3.08
2022-12-27T22:46:21.613Z,3.05
2022-12-27T22:48:53.178Z,2.98
2022-12-27T22:51:23.328Z,3.03
2022-12-27T22:53:51.585Z,2.97
2022-12-27T22:56:22.515Z,2.96
2022-12-27T22:58:50.678Z,2.91
2022-12-27T23:01:21.914Z,2.85
2022-12-27T23:03:50.445Z,2.92
2022-12-27T23:06:18.795Z,2.82
2022-12-27T23:08:47.429Z,2.94
2022-12-27T23:11:17.625Z,2.90
2022-12-27T23:13:45.411Z,2.91
2022-12-27T23:16:13.401Z,2.84
2022-12-27T23:18:42.703Z,3.08
2022-12-27T23:21:20.102Z,3.22
2022-12-27T23:23:51.428Z,3.13
2022-12-27T23:26:22.103Z,3.22
2022-12-27T23:28:51.177Z,3.18
2022-12-27T23:31:22.047Z,3.16
2022-12-27T23:33:51.696Z,2.98
2022-12-27T23:36:20.789Z,2.92
2022-12-27T23:38:49.596Z,2.87
2022-12-27T23:41:19.043Z,2.84
2022-12-27T23:43:55.662Z,3.05
2022-12-27T23:46:27.769Z,3.26
2022-12-27T23:48:58.028Z,3.18
2022-12-27T23:51:25.921Z,2.92
2022-12-27T23:53:53.737Z,2.82
2022-12-27T23:56:23.135Z,2.76
2022-12-27T23:58:52.588Z,2.70
